sensor_id;sensor_type;location;lat;lon;timestamp;pressure;altitude;pressure_sealevel;temperature;humidity
25350;BME280;13302;48.796;11.978;2023-04-26T00:00:25;96710.28;;;10.28;34.92
25350;BME280;13302;48.796;11.978;2023-04-26T00:03:12;96716.53;;;10.25;35.10
25350;BME280;13302;48.796;11.978;2023-04-26T00:06:00;96712.16;;;10.24;35.13
25350;BME280;13302;48.796;11.978;2023-04-26T00:08:54;96708.59;;;10.23;35.19
25350;BME280;13302;48.796;11.978;2023-04-26T00:11:42;96711.34;;;10.23;35.32
25350;BME280;13302;48.796;11.978;2023-04-26T00:14:28;96702.63;;;10.21;35.24
25350;BME280;13302;48.796;11.978;2023-04-26T00:17:16;96713.69;;;10.21;35.53
25350;BME280;13302;48.796;11.978;2023-04-26T00:20:03;96712.88;;;10.21;35.31
25350;BME280;13302;48.796;11.978;2023-04-26T00:22:53;96705.72;;;10.20;35.37
25350;BME280;13302;48.796;11.978;2023-04-26T00:25:40;96712.41;;;10.19;35.35
25350;BME280;13302;48.796;11.978;2023-04-26T00:28:28;96711.16;;;10.16;35.32
25350;BME280;13302;48.796;11.978;2023-04-26T00:31:15;96710.00;;;10.17;35.45
25350;BME280;13302;48.796;11.978;2023-04-26T00:34:03;96707.25;;;10.17;35.72
25350;BME280;13302;48.796;11.978;2023-04-26T00:36:50;96711.16;;;10.16;35.69
25350;BME280;13302;48.796;11.978;2023-04-26T00:39:37;96711.50;;;10.14;35.79
25350;BME280;13302;48.796;11.978;2023-04-26T00:42:25;96703.47;;;10.09;35.67
25350;BME280;13302;48.796;11.978;2023-04-26T00:45:13;96708.63;;;10.11;35.66
25350;BME280;13302;48.796;11.978;2023-04-26T00:48:01;96712.91;;;10.08;35.97
25350;BME280;13302;48.796;11.978;2023-04-26T00:50:49;96719.13;;;10.05;35.82
25350;BME280;13302;48.796;11.978;2023-04-26T00:53:36;96726.16;;;10.03;36.09
25350;BME280;13302;48.796;11.978;2023-04-26T00:56:24;96723.66;;;9.98;36.16
25350;BME280;13302;48.796;11.978;2023-04-26T00:59:12;96721.69;;;9.98;36.22
25350;BME280;13302;48.796;11.978;2023-04-26T01:01:59;96721.59;;;9.95;36.37
25350;BME280;13302;48.796;11.978;2023-04-26T01:04:46;96717.22;;;9.94;36.22
25350;BME280;13302;48.796;11.978;2023-04-26T01:07:35;96723.88;;;9.93;36.18
25350;BME280;13302;48.796;11.978;2023-04-26T01:10:22;96726.66;;;9.93;36.08
25350;BME280;13302;48.796;11.978;2023-04-26T01:13:10;96716.78;;;9.92;36.38
25350;BME280;13302;48.796;11.978;2023-04-26T01:15:58;96719.16;;;9.93;36.53
25350;BME280;13302;48.796;11.978;2023-04-26T01:18:52;96716.41;;;9.93;36.18
25350;BME280;13302;48.796;11.978;2023-04-26T01:21:40;96717.22;;;9.94;36.24
25350;BME280;13302;48.796;11.978;2023-04-26T01:24:27;96717.22;;;9.94;36.43
25350;BME280;13302;48.796;11.978;2023-04-26T01:27:16;96711.69;;;9.94;36.28
25350;BME280;13302;48.796;11.978;2023-04-26T01:30:03;96720.78;;;9.94;36.30
25350;BME280;13302;48.796;11.978;2023-04-26T01:32:51;96719.97;;;9.94;36.13
25350;BME280;13302;48.796;11.978;2023-04-26T01:35:38;96719.97;;;9.94;36.38
25350;BME280;13302;48.796;11.978;2023-04-26T01:38:25;96719.16;;;9.93;36.31
25350;BME280;13302;48.796;11.978;2023-04-26T01:41:13;96723.09;;;9.92;36.21
25350;BME280;13302;48.796;11.978;2023-04-26T01:44:00;96724.59;;;9.90;36.12
25350;BME280;13302;48.796;11.978;2023-04-26T01:46:47;96734.84;;;9.89;36.28
25350;BME280;13302;48.796;11.978;2023-04-26T01:49:34;96741.41;;;9.85;36.37
25350;BME280;13302;48.796;11.978;2023-04-26T01:52:22;96730.63;;;9.80;36.24
25350;BME280;13302;48.796;11.978;2023-04-26T01:55:09;96739.94;;;9.75;36.23
25350;BME280;13302;48.796;11.978;2023-04-26T01:57:56;96738.94;;;9.67;36.29
25350;BME280;13302;48.796;11.978;2023-04-26T02:00:43;96741.13;;;9.62;35.93
25350;BME280;13302;48.796;11.978;2023-04-26T02:03:30;96735.50;;;9.58;36.02
25350;BME280;13302;48.796;11.978;2023-04-26T02:06:17;96742.47;;;9.56;36.46
25350;BME280;13302;48.796;11.978;2023-04-26T02:09:04;96745.59;;;9.54;36.30
25350;BME280;13302;48.796;11.978;2023-04-26T02:11:51;96749.50;;;9.53;36.47
25350;BME280;13302;48.796;11.978;2023-04-26T02:14:38;96743.88;;;9.50;36.18
25350;BME280;13302;48.796;11.978;2023-04-26T02:17:25;96748.09;;;9.47;36.26
25350;BME280;13302;48.796;11.978;2023-04-26T02:20:12;96746.41;;;9.43;36.28
25350;BME280;13302;48.796;11.978;2023-04-26T02:22:59;96745.81;;;9.37;36.34
25350;BME280;13302;48.796;11.978;2023-04-26T02:25:47;96741.34;;;9.33;36.15
25350;BME280;13302;48.796;11.978;2023-04-26T02:28:36;96745.59;;;9.30;36.24
25350;BME280;13302;48.796;11.978;2023-04-26T02:31:23;96748.59;;;9.25;36.26
25350;BME280;13302;48.796;11.978;2023-04-26T02:34:11;96743.78;;;9.22;36.19
25350;BME280;13302;48.796;11.978;2023-04-26T02:36:58;96747.19;;;9.19;36.35
25350;BME280;13302;48.796;11.978;2023-04-26T02:39:48;96737.19;;;9.14;36.40
25350;BME280;13302;48.796;11.978;2023-04-26T02:42:36;96742.72;;;9.14;36.28
25350;BME280;13302;48.796;11.978;2023-04-26T02:45:23;96744.22;;;9.12;36.16
25350;BME280;13302;48.796;11.978;2023-04-26T02:48:10;96742.97;;;9.09;36.27
25350;BME280;13302;48.796;11.978;2023-04-26T02:50:58;96749.63;;;9.08;36.40
25350;BME280;13302;48.796;11.978;2023-04-26T02:53:45;96746.38;;;9.06;36.50
25350;BME280;13302;48.796;11.978;2023-04-26T02:56:32;96744.31;;;9.03;36.34
25350;BME280;13302;48.796;11.978;2023-04-26T02:59:19;96746.63;;;9.01;36.10
25350;BME280;13302;48.796;11.978;2023-04-26T03:02:07;96746.16;;;8.99;36.14
25350;BME280;13302;48.796;11.978;2023-04-26T03:04:54;96753.19;;;8.97;36.16
25350;BME280;13302;48.796;11.978;2023-04-26T03:07:41;96747.19;;;8.95;36.14
25350;BME280;13302;48.796;11.978;2023-04-26T03:10:28;96745.59;;;8.94;36.15
25350;BME280;13302;48.796;11.978;2023-04-26T03:13:15;96756.16;;;8.92;36.04
25350;BME280;13302;48.796;11.978;2023-04-26T03:16:03;96753.28;;;8.88;36.13
25350;BME280;13302;48.796;11.978;2023-04-26T03:18:51;96752.81;;;8.86;36.01
25350;BME280;13302;48.796;11.978;2023-04-26T03:21:40;96751.56;;;8.84;35.81
25350;BME280;13302;48.796;11.978;2023-04-26T03:24:27;96758.56;;;8.81;36.17
25350;BME280;13302;48.796;11.978;2023-04-26T03:27:14;96761.97;;;8.78;35.66
25350;BME280;13302;48.796;11.978;2023-04-26T03:30:01;96756.34;;;8.74;35.64
25350;BME280;13302;48.796;11.978;2023-04-26T03:32:50;96747.97;;;8.71;35.50
25350;BME280;13302;48.796;11.978;2023-04-26T03:35:38;96754.97;;;8.68;35.44
25350;BME280;13302;48.796;11.978;2023-04-26T03:38:25;96756.81;;;8.64;35.59
25350;BME280;13302;48.796;11.978;2023-04-26T03:41:12;96757.94;;;8.63;35.35
25350;BME280;13302;48.796;11.978;2023-04-26T03:44:00;96754.25;;;8.59;35.34
25350;BME280;13302;48.796;11.978;2023-04-26T03:46:47;96750.56;;;8.55;35.22
25350;BME280;13302;48.796;11.978;2023-04-26T03:49:34;96757.91;;;8.51;35.46
25350;BME280;13302;48.796;11.978;2023-04-26T03:52:21;96755.00;;;8.48;35.29
25350;BME280;13302;48.796;11.978;2023-04-26T03:55:08;96760.72;;;8.43;35.33
25350;BME280;13302;48.796;11.978;2023-04-26T03:57:57;96766.09;;;8.39;35.25
25350;BME280;13302;48.796;11.978;2023-04-26T04:00:45;96768.06;;;8.39;35.37
25350;BME280;13302;48.796;11.978;2023-04-26T04:03:32;96773.06;;;8.37;35.38
25350;BME280;13302;48.796;11.978;2023-04-26T04:06:20;96772.63;;;8.35;35.45
25350;BME280;13302;48.796;11.978;2023-04-26T04:09:07;96777.31;;;8.34;35.57
25350;BME280;13302;48.796;11.978;2023-04-26T04:11:54;96778.81;;;8.32;35.73
25350;BME280;13302;48.796;11.978;2023-04-26T04:14:42;96784.22;;;8.28;35.65
25350;BME280;13302;48.796;11.978;2023-04-26T04:17:29;96791.97;;;8.26;35.72
25350;BME280;13302;48.796;11.978;2023-04-26T04:20:16;96784.53;;;8.26;35.57
25350;BME280;13302;48.796;11.978;2023-04-26T04:23:04;96786.47;;;8.26;35.86
25350;BME280;13302;48.796;11.978;2023-04-26T04:25:54;96780.16;;;8.25;35.71
25350;BME280;13302;48.796;11.978;2023-04-26T04:28:41;96781.78;;;8.26;35.92
25350;BME280;13302;48.796;11.978;2023-04-26T04:31:28;96795.22;;;8.28;35.91
25350;BME280;13302;48.796;11.978;2023-04-26T04:34:16;96799.25;;;8.30;35.63
25350;BME280;13302;48.796;11.978;2023-04-26T04:37:04;96795.81;;;8.34;35.67
25350;BME280;13302;48.796;11.978;2023-04-26T04:39:52;96799.84;;;8.36;35.85
25350;BME280;13302;48.796;11.978;2023-04-26T04:42:39;96801.09;;;8.39;35.70
25350;BME280;13302;48.796;11.978;2023-04-26T04:45:28;96810.31;;;8.43;35.84
25350;BME280;13302;48.796;11.978;2023-04-26T04:48:17;96809.97;;;8.44;35.87
25350;BME280;13302;48.796;11.978;2023-04-26T04:51:05;96808.00;;;8.45;35.89
25350;BME280;13302;48.796;11.978;2023-04-26T04:53:52;96812.06;;;8.47;35.88
25350;BME280;13302;48.796;11.978;2023-04-26T04:56:39;96806.06;;;8.45;35.95
25350;BME280;13302;48.796;11.978;2023-04-26T04:59:27;96809.28;;;8.47;35.81
25350;BME280;13302;48.796;11.978;2023-04-26T05:02:14;96812.50;;;8.49;35.74
25350;BME280;13302;48.796;11.978;2023-04-26T05:05:03;96810.25;;;8.51;35.77
25350;BME280;13302;48.796;11.978;2023-04-26T05:07:51;96824.16;;;8.55;35.72
25350;BME280;13302;48.796;11.978;2023-04-26T05:10:38;96816.38;;;8.57;35.77
25350;BME280;13302;48.796;11.978;2023-04-26T05:13:25;96827.03;;;8.58;35.69
25350;BME280;13302;48.796;11.978;2023-04-26T05:16:13;96823.94;;;8.60;35.59
25350;BME280;13302;48.796;11.978;2023-04-26T05:19:01;96829.47;;;8.60;35.69
25350;BME280;13302;48.796;11.978;2023-04-26T05:21:48;96835.91;;;8.64;35.67
25350;BME280;13302;48.796;11.978;2023-04-26T05:24:36;96832.03;;;8.65;35.45
25350;BME280;13302;48.796;11.978;2023-04-26T05:27:23;96828.56;;;8.68;35.26
25350;BME280;13302;48.796;11.978;2023-04-26T05:30:27;96822.69;;;8.69;35.36
25350;BME280;13302;48.796;11.978;2023-04-26T05:33:43;96819.28;;;8.72;35.36
25350;BME280;13302;48.796;11.978;2023-04-26T05:36:36;96819.41;;;8.76;35.15
25350;BME280;13302;48.796;11.978;2023-04-26T05:39:23;96832.06;;;8.77;34.98
25350;BME280;13302;48.796;11.978;2023-04-26T05:42:10;96834.44;;;8.79;34.81
25350;BME280;13302;48.796;11.978;2023-04-26T05:44:58;96836.88;;;8.80;35.03
25350;BME280;13302;48.796;11.978;2023-04-26T05:47:47;96842.03;;;8.82;35.00
25350;BME280;13302;48.796;11.978;2023-04-26T05:50:34;96853.88;;;8.82;34.70
25350;BME280;13302;48.796;11.978;2023-04-26T05:53:21;96851.91;;;8.83;34.62
25350;BME280;13302;48.796;11.978;2023-04-26T05:56:08;96844.47;;;8.83;34.71
25350;BME280;13302;48.796;11.978;2023-04-26T05:58:56;96852.41;;;8.85;34.71
25350;BME280;13302;48.796;11.978;2023-04-26T06:01:43;96854.03;;;8.86;34.77
25350;BME280;13302;48.796;11.978;2023-04-26T06:04:31;96842.31;;;8.89;34.82
25350;BME280;13302;48.796;11.978;2023-04-26T06:07:29;96843.56;;;8.91;34.90
25350;BME280;13302;48.796;11.978;2023-04-26T06:10:16;96836.91;;;8.92;34.56
25350;BME280;13302;48.796;11.978;2023-04-26T06:13:03;96842.53;;;8.96;34.79
25350;BME280;13302;48.796;11.978;2023-04-26T06:15:53;96845.78;;;8.98;34.59
25350;BME280;13302;48.796;11.978;2023-04-26T06:18:40;96850.59;;;9.01;34.58
25350;BME280;13302;48.796;11.978;2023-04-26T06:21:27;96857.38;;;9.03;34.55
25350;BME280;13302;48.796;11.978;2023-04-26T06:24:14;96866.13;;;9.05;34.74
25350;BME280;13302;48.796;11.978;2023-04-26T06:27:01;96872.47;;;9.06;34.47
25350;BME280;13302;48.796;11.978;2023-04-26T06:29:49;96870.84;;;9.05;34.56
25350;BME280;13302;48.796;11.978;2023-04-26T06:32:39;96866.94;;;9.06;34.76
25350;BME280;13302;48.796;11.978;2023-04-26T06:35:27;96881.19;;;9.08;34.76
25350;BME280;13302;48.796;11.978;2023-04-26T06:38:14;96877.72;;;9.11;34.81
25350;BME280;13302;48.796;11.978;2023-04-26T06:41:02;96886.13;;;9.14;34.65
25350;BME280;13302;48.796;11.978;2023-04-26T06:43:49;96883.03;;;9.16;34.69
25350;BME280;13302;48.796;11.978;2023-04-26T06:46:40;96891.09;;;9.21;34.66
25350;BME280;13302;48.796;11.978;2023-04-26T06:49:27;96885.38;;;9.26;34.30
25350;BME280;13302;48.796;11.978;2023-04-26T06:52:14;96883.19;;;9.32;34.50
25350;BME280;13302;48.796;11.978;2023-04-26T06:55:02;96888.03;;;9.35;34.43
25350;BME280;13302;48.796;11.978;2023-04-26T06:57:51;96886.53;;;9.37;34.28
25350;BME280;13302;48.796;11.978;2023-04-26T07:00:38;96892.97;;;9.41;33.46
25350;BME280;13302;48.796;11.978;2023-04-26T07:03:25;96905.63;;;9.42;33.60
25350;BME280;13302;48.796;11.978;2023-04-26T07:06:13;96894.91;;;9.41;33.93
25350;BME280;13302;48.796;11.978;2023-04-26T07:09:00;96897.81;;;9.44;33.73
25350;BME280;13302;48.796;11.978;2023-04-26T07:11:48;96900.34;;;9.49;33.42
25350;BME280;13302;48.796;11.978;2023-04-26T07:14:35;96894.59;;;9.54;33.52
25350;BME280;13302;48.796;11.978;2023-04-26T07:17:26;96897.50;;;9.58;33.67
25350;BME280;13302;48.796;11.978;2023-04-26T07:20:13;96904.06;;;9.65;33.30
25350;BME280;13302;48.796;11.978;2023-04-26T07:23:05;96894.75;;;9.70;33.22
25350;BME280;13302;48.796;11.978;2023-04-26T07:25:52;96892.59;;;9.76;33.07
25350;BME280;13302;48.796;11.978;2023-04-26T07:28:41;96899.69;;;9.77;33.05
25350;BME280;13302;48.796;11.978;2023-04-26T07:31:29;96894.66;;;9.79;32.99
25350;BME280;13302;48.796;11.978;2023-04-26T07:34:17;96899.34;;;9.90;33.01
25350;BME280;13302;48.796;11.978;2023-04-26T07:37:05;96901.41;;;9.93;32.64
25350;BME280;13302;48.796;11.978;2023-04-26T07:39:52;96887.59;;;10.05;32.75
25350;BME280;13302;48.796;11.978;2023-04-26T07:42:39;96885.84;;;10.13;32.62
25350;BME280;13302;48.796;11.978;2023-04-26T07:45:27;96884.97;;;10.21;32.37
25350;BME280;13302;48.796;11.978;2023-04-26T07:48:14;96885.59;;;10.30;32.06
25350;BME280;13302;48.796;11.978;2023-04-26T07:51:10;96881.91;;;10.38;32.09
25350;BME280;13302;48.796;11.978;2023-04-26T07:53:57;96876.34;;;10.50;31.64
25350;BME280;13302;48.796;11.978;2023-04-26T07:56:44;96881.41;;;10.61;31.80
25350;BME280;13302;48.796;11.978;2023-04-26T07:59:31;96880.91;;;10.71;31.62
25350;BME280;13302;48.796;11.978;2023-04-26T08:02:18;96885.47;;;10.79;31.18
25350;BME280;13302;48.796;11.978;2023-04-26T08:05:15;96879.19;;;10.78;31.21
25350;BME280;13302;48.796;11.978;2023-04-26T08:08:03;96883.09;;;10.77;31.16
25350;BME280;13302;48.796;11.978;2023-04-26T08:10:50;96884.72;;;10.78;31.25
25350;BME280;13302;48.796;11.978;2023-04-26T08:13:37;96885.84;;;10.77;31.06
25350;BME280;13302;48.796;11.978;2023-04-26T08:16:24;96875.13;;;10.76;30.84
25350;BME280;13302;48.796;11.978;2023-04-26T08:19:11;96887.91;;;10.80;31.01
25350;BME280;13302;48.796;11.978;2023-04-26T08:21:58;96880.75;;;10.79;30.82
25350;BME280;13302;48.796;11.978;2023-04-26T08:24:49;96883.19;;;10.81;30.95
25350;BME280;13302;48.796;11.978;2023-04-26T08:27:37;96880.97;;;10.86;30.78
25350;BME280;13302;48.796;11.978;2023-04-26T08:30:24;96885.47;;;10.91;30.74
25350;BME280;13302;48.796;11.978;2023-04-26T08:33:11;96884.28;;;10.92;30.52
25350;BME280;13302;48.796;11.978;2023-04-26T08:35:58;96885.56;;;10.94;30.18
25350;BME280;13302;48.796;11.978;2023-04-26T08:38:47;96883.75;;;10.86;30.28
25350;BME280;13302;48.796;11.978;2023-04-26T08:41:36;96894.66;;;10.95;30.19
25350;BME280;13302;48.796;11.978;2023-04-26T08:44:24;96892.44;;;11.00;29.86
25350;BME280;13302;48.796;11.978;2023-04-26T08:47:41;96881.81;;;11.02;29.61
25350;BME280;13302;48.796;11.978;2023-04-26T08:50:30;96881.91;;;11.06;29.82
25350;BME280;13302;48.796;11.978;2023-04-26T08:53:17;96882.34;;;11.08;29.69
25350;BME280;13302;48.796;11.978;2023-04-26T08:56:05;96891.56;;;11.12;29.83
25350;BME280;13302;48.796;11.978;2023-04-26T08:58:54;96879.34;;;11.13;29.82
25350;BME280;13302;48.796;11.978;2023-04-26T09:01:42;96882.28;;;11.20;29.15
25350;BME280;13302;48.796;11.978;2023-04-26T09:04:30;96888.03;;;11.27;29.27
25350;BME280;13302;48.796;11.978;2023-04-26T09:07:30;96867.94;;;11.30;29.19
25350;BME280;13302;48.796;11.978;2023-04-26T09:10:20;96871.69;;;11.38;29.16
25350;BME280;13302;48.796;11.978;2023-04-26T09:13:08;96874.56;;;11.41;29.38
25350;BME280;13302;48.796;11.978;2023-04-26T09:15:55;96877.88;;;11.47;29.06
25350;BME280;13302;48.796;11.978;2023-04-26T09:18:49;96879.41;;;11.44;28.80
25350;BME280;13302;48.796;11.978;2023-04-26T09:21:42;96880.41;;;11.52;28.90
25350;BME280;13302;48.796;11.978;2023-04-26T09:24:49;96874.16;;;11.55;28.97
25350;BME280;13302;48.796;11.978;2023-04-26T09:27:42;96877.34;;;11.57;28.68
25350;BME280;13302;48.796;11.978;2023-04-26T09:30:29;96875.13;;;11.63;28.89
25350;BME280;13302;48.796;11.978;2023-04-26T09:33:17;96872.81;;;11.65;28.57
25350;BME280;13302;48.796;11.978;2023-04-26T09:36:11;96879.59;;;11.67;28.40
25350;BME280;13302;48.796;11.978;2023-04-26T09:38:59;96867.38;;;11.68;28.42
25350;BME280;13302;48.796;11.978;2023-04-26T09:41:46;96866.91;;;11.66;28.30
25350;BME280;13302;48.796;11.978;2023-04-26T09:44:34;96869.06;;;11.73;28.24
25350;BME280;13302;48.796;11.978;2023-04-26T09:47:21;96872.72;;;11.77;28.25
25350;BME280;13302;48.796;11.978;2023-04-26T09:50:08;96867.63;;;11.79;28.08
25350;BME280;13302;48.796;11.978;2023-04-26T09:52:56;96868.41;;;11.79;27.86
25350;BME280;13302;48.796;11.978;2023-04-26T09:55:46;96871.19;;;11.79;27.68
25350;BME280;13302;48.796;11.978;2023-04-26T09:58:37;96874.78;;;11.80;27.52
25350;BME280;13302;48.796;11.978;2023-04-26T10:01:25;96873.16;;;11.79;27.33
25350;BME280;13302;48.796;11.978;2023-04-26T10:04:12;96869.22;;;11.80;27.79
25350;BME280;13302;48.796;11.978;2023-04-26T10:07:00;96873.97;;;11.79;27.86
25350;BME280;13302;48.796;11.978;2023-04-26T10:09:48;96873.63;;;11.81;27.68
25350;BME280;13302;48.796;11.978;2023-04-26T10:12:36;96862.06;;;11.79;28.04
25350;BME280;13302;48.796;11.978;2023-04-26T10:15:23;96871.84;;;11.73;27.63
25350;BME280;13302;48.796;11.978;2023-04-26T10:18:10;96870.47;;;11.82;27.79
25350;BME280;13302;48.796;11.978;2023-04-26T10:21:12;96865.81;;;11.86;27.48
25350;BME280;13302;48.796;11.978;2023-04-26T10:24:02;96859.56;;;11.89;27.53
25350;BME280;13302;48.796;11.978;2023-04-26T10:26:53;96857.06;;;11.84;27.86
25350;BME280;13302;48.796;11.978;2023-04-26T10:36:11;96851.78;;;11.95;27.60
25350;BME280;13302;48.796;11.978;2023-04-26T10:39:25;96838.72;;;11.95;27.49
25350;BME280;13302;48.796;11.978;2023-04-26T10:42:24;96847.19;;;12.03;27.29
25350;BME280;13302;48.796;11.978;2023-04-26T10:45:39;96843.13;;;11.96;27.32
25350;BME280;13302;48.796;11.978;2023-04-26T10:51:14;96843.88;;;12.13;27.10
25350;BME280;13302;48.796;11.978;2023-04-26T10:54:01;96846.38;;;12.18;26.53
25350;BME280;13302;48.796;11.978;2023-04-26T10:56:50;96842.88;;;12.21;26.91
25350;BME280;13302;48.796;11.978;2023-04-26T10:59:37;96845.28;;;12.22;26.82
25350;BME280;13302;48.796;11.978;2023-04-26T11:05:53;96831.88;;;12.24;26.81
25350;BME280;13302;48.796;11.978;2023-04-26T11:08:40;96825.97;;;12.26;26.46
25350;BME280;13302;48.796;11.978;2023-04-26T11:11:27;96824.00;;;12.26;26.22
25350;BME280;13302;48.796;11.978;2023-04-26T11:14:18;96818.47;;;12.26;26.49
25350;BME280;13302;48.796;11.978;2023-04-26T11:17:06;96822.81;;;12.27;26.46
25350;BME280;13302;48.796;11.978;2023-04-26T11:19:54;96829.38;;;12.19;26.14
25350;BME280;13302;48.796;11.978;2023-04-26T11:22:41;96822.75;;;12.24;26.45
25350;BME280;13302;48.796;11.978;2023-04-26T11:25:28;96822.38;;;12.25;26.32
25350;BME280;13302;48.796;11.978;2023-04-26T11:28:17;96818.88;;;12.28;26.43
25350;BME280;13302;48.796;11.978;2023-04-26T11:31:05;96819.75;;;12.32;26.33
25350;BME280;13302;48.796;11.978;2023-04-26T11:33:53;96818.22;;;12.35;25.86
25350;BME280;13302;48.796;11.978;2023-04-26T11:36:40;96816.25;;;12.35;26.04
25350;BME280;13302;48.796;11.978;2023-04-26T11:39:27;96819.75;;;12.32;26.00
25350;BME280;13302;48.796;11.978;2023-04-26T11:42:16;96813.00;;;12.30;25.84
25350;BME280;13302;48.796;11.978;2023-04-26T11:45:03;96807.78;;;12.28;26.07
25350;BME280;13302;48.796;11.978;2023-04-26T11:47:53;96818.59;;;12.33;25.96
25350;BME280;13302;48.796;11.978;2023-04-26T11:50:41;96812.41;;;12.40;26.38
25350;BME280;13302;48.796;11.978;2023-04-26T11:53:39;96811.34;;;12.45;26.31
25350;BME280;13302;48.796;11.978;2023-04-26T11:56:26;96808.28;;;12.50;26.68
25350;BME280;13302;48.796;11.978;2023-04-26T11:59:22;96807.06;;;12.47;25.70
25350;BME280;13302;48.796;11.978;2023-04-26T12:02:10;96810.75;;;12.55;26.23
25350;BME280;13302;48.796;11.978;2023-04-26T12:04:58;96818.06;;;12.63;25.67
25350;BME280;13302;48.796;11.978;2023-04-26T12:07:51;96808.19;;;12.65;25.68
25350;BME280;13302;48.796;11.978;2023-04-26T12:10:38;96816.97;;;12.67;24.89
25350;BME280;13302;48.796;11.978;2023-04-26T12:13:29;96814.53;;;12.66;25.16
25350;BME280;13302;48.796;11.978;2023-04-26T12:16:16;96817.69;;;12.64;25.46
25350;BME280;13302;48.796;11.978;2023-04-26T12:19:08;96810.16;;;12.65;25.31
25350;BME280;13302;48.796;11.978;2023-04-26T12:21:56;96804.03;;;12.75;25.06
25350;BME280;13302;48.796;11.978;2023-04-26T12:24:43;96806.06;;;12.78;24.90
25350;BME280;13302;48.796;11.978;2023-04-26T12:27:33;96795.84;;;12.82;25.11
25350;BME280;13302;48.796;11.978;2023-04-26T12:30:20;96800.97;;;12.80;24.95
25350;BME280;13302;48.796;11.978;2023-04-26T12:33:20;96795.56;;;12.87;24.87
25350;BME280;13302;48.796;11.978;2023-04-26T12:36:10;96788.38;;;12.86;24.67
25350;BME280;13302;48.796;11.978;2023-04-26T12:38:57;96796.66;;;12.82;24.99
25350;BME280;13302;48.796;11.978;2023-04-26T12:41:44;96787.72;;;12.93;24.75
25350;BME280;13302;48.796;11.978;2023-04-26T12:44:35;96787.47;;;13.01;24.66
25350;BME280;13302;48.796;11.978;2023-04-26T12:47:22;96785.56;;;13.05;25.08
25350;BME280;13302;48.796;11.978;2023-04-26T12:50:09;96776.88;;;13.07;25.14
25350;BME280;13302;48.796;11.978;2023-04-26T12:52:58;96779.78;;;13.14;24.99
25350;BME280;13302;48.796;11.978;2023-04-26T12:55:45;96788.25;;;13.21;24.96
25350;BME280;13302;48.796;11.978;2023-04-26T12:58:32;96778.41;;;13.27;24.66
25350;BME280;13302;48.796;11.978;2023-04-26T13:01:20;96783.25;;;13.30;24.63
25350;BME280;13302;48.796;11.978;2023-04-26T13:06:56;96780.47;;;13.30;24.13
25350;BME280;13302;48.796;11.978;2023-04-26T13:09:44;96779.75;;;13.33;24.18
25350;BME280;13302;48.796;11.978;2023-04-26T13:12:31;96787.69;;;13.34;24.14
25350;BME280;13302;48.796;11.978;2023-04-26T13:15:18;96785.06;;;13.42;24.40
25350;BME280;13302;48.796;11.978;2023-04-26T13:18:06;96787.91;;;13.45;23.87
25350;BME280;13302;48.796;11.978;2023-04-26T13:20:54;96790.13;;;13.36;23.93
25350;BME280;13302;48.796;11.978;2023-04-26T13:23:41;96786.59;;;13.39;23.93
25350;BME280;13302;48.796;11.978;2023-04-26T13:26:28;96788.50;;;13.35;24.21
25350;BME280;13302;48.796;11.978;2023-04-26T13:29:16;96783.81;;;13.39;24.04
25350;BME280;13302;48.796;11.978;2023-04-26T13:32:03;96787.69;;;13.34;23.75
25350;BME280;13302;48.796;11.978;2023-04-26T13:34:50;96780.22;;;13.39;23.96
25350;BME280;13302;48.796;11.978;2023-04-26T13:37:37;96781.41;;;13.38;24.06
25350;BME280;13302;48.796;11.978;2023-04-26T13:40:24;96786.94;;;13.38;23.87
25350;BME280;13302;48.796;11.978;2023-04-26T13:43:12;96783.41;;;13.37;24.05
25350;BME280;13302;48.796;11.978;2023-04-26T13:45:59;96778.63;;;13.38;23.96
25350;BME280;13302;48.796;11.978;2023-04-26T13:48:46;96767.97;;;13.40;23.57
25350;BME280;13302;48.796;11.978;2023-04-26T13:51:33;96762.41;;;13.40;23.59
25350;BME280;13302;48.796;11.978;2023-04-26T13:54:20;96762.00;;;13.18;23.70
25350;BME280;13302;48.796;11.978;2023-04-26T13:57:08;96775.72;;;13.30;23.64
25350;BME280;13302;48.796;11.978;2023-04-26T13:59:55;96770.69;;;13.36;24.07
25350;BME280;13302;48.796;11.978;2023-04-26T14:02:42;96765.53;;;13.38;23.25
25350;BME280;13302;48.796;11.978;2023-04-26T14:05:29;96762.28;;;13.32;23.55
25350;BME280;13302;48.796;11.978;2023-04-26T14:08:17;96760.31;;;13.33;23.52
25350;BME280;13302;48.796;11.978;2023-04-26T14:11:04;96760.31;;;13.33;23.69
25350;BME280;13302;48.796;11.978;2023-04-26T14:13:51;96758.78;;;13.36;23.41
25350;BME280;13302;48.796;11.978;2023-04-26T14:16:41;96753.56;;;13.34;23.41
25350;BME280;13302;48.796;11.978;2023-04-26T14:19:29;96752.78;;;13.33;23.42
25350;BME280;13302;48.796;11.978;2023-04-26T14:22:16;96755.63;;;13.37;23.40
25350;BME280;13302;48.796;11.978;2023-04-26T14:25:04;96760.06;;;13.42;23.14
25350;BME280;13302;48.796;11.978;2023-04-26T14:27:52;96757.66;;;13.40;23.11
25350;BME280;13302;48.796;11.978;2023-04-26T14:30:39;96762.09;;;13.45;23.35
25350;BME280;13302;48.796;11.978;2023-04-26T14:33:26;96756.97;;;13.47;23.43
25350;BME280;13302;48.796;11.978;2023-04-26T14:36:13;96749.06;;;13.49;23.28
25350;BME280;13302;48.796;11.978;2023-04-26T14:39:01;96747.16;;;13.53;23.36
25350;BME280;13302;48.796;11.978;2023-04-26T14:41:48;96742.00;;;13.55;23.28
25350;BME280;13302;48.796;11.978;2023-04-26T14:44:35;96763.88;;;13.56;23.33
25350;BME280;13302;48.796;11.978;2023-04-26T14:47:22;96746.41;;;13.56;23.02
25350;BME280;13302;48.796;11.978;2023-04-26T14:50:09;96743.25;;;13.57;22.86
25350;BME280;13302;48.796;11.978;2023-04-26T14:52:59;96749.75;;;13.42;22.84
25350;BME280;13302;48.796;11.978;2023-04-26T14:55:53;96748.63;;;13.47;22.94
25350;BME280;13302;48.796;11.978;2023-04-26T14:58:40;96749.88;;;13.49;23.37
25350;BME280;13302;48.796;11.978;2023-04-26T15:01:27;96746.28;;;13.49;23.30